sensor_id;sensor_type;location;lat;lon;timestamp;P1;durP1;ratioP1;P2;durP2;ratioP2
46757;SDS011;32509;47.750;-3.396;2023-03-01T00:01:52;3.05;;;2.85;;
46757;SDS011;32509;47.750;-3.396;2023-03-01T00:04:18;3.17;;;2.88;;
46757;SDS011;32509;47.750;-3.396;2023-03-01T00:06:44;3.42;;;3.20;;
46757;SDS011;32509;47.750;-3.396;2023-03-01T00:09:13;3.22;;;3.03;;
46757;SDS011;32509;47.750;-3.396;2023-03-01T00:11:40;3.63;;;3.33;;
46757;SDS011;32509;47.750;-3.396;2023-03-01T00:14:06;3.75;;;3.45;;
46757;SDS011;32509;47.750;-3.396;2023-03-01T00:16:34;3.00;;;2.80;;
46757;SDS011;32509;47.750;-3.396;2023-03-01T00:19:03;3.97;;;3.67;;
46757;SDS011;32509;47.750;-3.396;2023-03-01T00:21:30;3.30;;;3.10;;
46757;SDS011;32509;47.750;-3.396;2023-03-01T00:23:56;4.75;;;4.35;;
46757;SDS011;32509;47.750;-3.396;2023-03-01T00:26:22;5.10;;;4.68;;
46757;SDS011;32509;47.750;-3.396;2023-03-01T00:28:50;4.60;;;4.22;;
46757;SDS011;32509;47.750;-3.396;2023-03-01T00:31:17;4.55;;;4.15;;
46757;SDS011;32509;47.750;-3.396;2023-03-01T00:33:45;4.60;;;4.28;;
46757;SDS011;32509;47.750;-3.396;2023-03-01T00:36:11;6.20;;;5.70;;
46757;SDS011;32509;47.750;-3.396;2023-03-01T00:38:40;5.97;;;5.45;;
46757;SDS011;32509;47.750;-3.396;2023-03-01T00:41:10;6.97;;;6.38;;
46757;SDS011;32509;47.750;-3.396;2023-03-01T00:43:41;6.85;;;6.25;;
46757;SDS011;32509;47.750;-3.396;2023-03-01T00:46:11;7.30;;;6.70;;
46757;SDS011;32509;47.750;-3.396;2023-03-01T00:48:38;7.80;;;7.10;;
46757;SDS011;32509;47.750;-3.396;2023-03-01T00:51:07;8.20;;;7.50;;
46757;SDS011;32509;47.750;-3.396;2023-03-01T00:53:36;6.45;;;5.85;;
46757;SDS011;32509;47.750;-3.396;2023-03-01T00:56:03;7.47;;;6.60;;
46757;SDS011;32509;47.750;-3.396;2023-03-01T00:58:29;8.07;;;7.40;;
46757;SDS011;32509;47.750;-3.396;2023-03-01T01:00:56;8.32;;;7.63;;
46757;SDS011;32509;47.750;-3.396;2023-03-01T01:03:22;9.48;;;8.57;;
46757;SDS011;32509;47.750;-3.396;2023-03-01T01:05:50;8.80;;;8.10;;
46757;SDS011;32509;47.750;-3.396;2023-03-01T01:08:17;8.75;;;7.30;;
46757;SDS011;32509;47.750;-3.396;2023-03-01T01:10:43;8.88;;;8.07;;
46757;SDS011;32509;47.750;-3.396;2023-03-01T01:13:10;8.48;;;7.78;;
46757;SDS011;32509;47.750;-3.396;2023-03-01T01:15:36;8.57;;;7.88;;
46757;SDS011;32509;47.750;-3.396;2023-03-01T01:18:01;8.48;;;7.68;;
46757;SDS011;32509;47.750;-3.396;2023-03-01T01:20:27;8.68;;;7.63;;
46757;SDS011;32509;47.750;-3.396;2023-03-01T01:22:53;9.68;;;8.70;;
46757;SDS011;32509;47.750;-3.396;2023-03-01T01:25:19;9.73;;;8.88;;
46757;SDS011;32509;47.750;-3.396;2023-03-01T01:27:45;8.88;;;8.07;;
46757;SDS011;32509;47.750;-3.396;2023-03-01T01:30:11;8.68;;;7.90;;
46757;SDS011;32509;47.750;-3.396;2023-03-01T01:32:38;9.10;;;8.30;;
46757;SDS011;32509;47.750;-3.396;2023-03-01T01:35:04;8.60;;;7.57;;
46757;SDS011;32509;47.750;-3.396;2023-03-01T01:37:30;11.20;;;10.10;;
46757;SDS011;32509;47.750;-3.396;2023-03-01T01:39:58;9.68;;;8.80;;
46757;SDS011;32509;47.750;-3.396;2023-03-01T01:42:25;10.27;;;9.05;;
46757;SDS011;32509;47.750;-3.396;2023-03-01T01:47:55;9.25;;;8.40;;
46757;SDS011;32509;47.750;-3.396;2023-03-01T01:50:25;8.98;;;8.20;;
46757;SDS011;32509;47.750;-3.396;2023-03-01T01:52:52;9.80;;;8.85;;
46757;SDS011;32509;47.750;-3.396;2023-03-01T01:55:21;10.52;;;9.52;;
46757;SDS011;32509;47.750;-3.396;2023-03-01T01:57:53;10.30;;;9.38;;
46757;SDS011;32509;47.750;-3.396;2023-03-01T02:00:26;11.75;;;10.65;;
46757;SDS011;32509;47.750;-3.396;2023-03-01T02:02:55;10.73;;;9.82;;
46757;SDS011;32509;47.750;-3.396;2023-03-01T02:08:27;11.50;;;10.48;;
46757;SDS011;32509;47.750;-3.396;2023-03-01T02:10:55;12.05;;;10.93;;
46757;SDS011;32509;47.750;-3.396;2023-03-01T02:13:24;12.82;;;11.02;;
46757;SDS011;32509;47.750;-3.396;2023-03-01T02:15:50;12.63;;;11.32;;
46757;SDS011;32509;47.750;-3.396;2023-03-01T02:18:17;11.35;;;10.35;;
46757;SDS011;32509;47.750;-3.396;2023-03-01T02:23:20;13.35;;;12.05;;
46757;SDS011;32509;47.750;-3.396;2023-03-01T02:28:36;13.93;;;12.18;;
46757;SDS011;32509;47.750;-3.396;2023-03-01T02:31:07;13.23;;;11.93;;
46757;SDS011;32509;47.750;-3.396;2023-03-01T02:33:53;12.57;;;11.27;;
46757;SDS011;32509;47.750;-3.396;2023-03-01T02:36:25;13.88;;;12.32;;
46757;SDS011;32509;47.750;-3.396;2023-03-01T02:38:58;12.65;;;11.45;;
46757;SDS011;32509;47.750;-3.396;2023-03-01T02:41:26;15.27;;;13.77;;
46757;SDS011;32509;47.750;-3.396;2023-03-01T02:43:55;15.70;;;11.55;;
46757;SDS011;32509;47.750;-3.396;2023-03-01T02:46:23;13.10;;;11.50;;
46757;SDS011;32509;47.750;-3.396;2023-03-01T02:48:52;13.73;;;12.48;;
46757;SDS011;32509;47.750;-3.396;2023-03-01T02:54:15;12.88;;;11.63;;
46757;SDS011;32509;47.750;-3.396;2023-03-01T02:56:49;13.73;;;12.43;;
46757;SDS011;32509;47.750;-3.396;2023-03-01T02:59:16;13.35;;;12.15;;
46757;SDS011;32509;47.750;-3.396;2023-03-01T03:01:45;14.00;;;12.70;;
46757;SDS011;32509;47.750;-3.396;2023-03-01T03:04:13;13.75;;;12.38;;
46757;SDS011;32509;47.750;-3.396;2023-03-01T03:06:47;14.73;;;13.27;;
46757;SDS011;32509;47.750;-3.396;2023-03-01T03:09:14;13.23;;;11.77;;
46757;SDS011;32509;47.750;-3.396;2023-03-01T03:11:41;14.05;;;12.65;;
46757;SDS011;32509;47.750;-3.396;2023-03-01T03:14:11;12.75;;;11.57;;
46757;SDS011;32509;47.750;-3.396;2023-03-01T03:16:43;15.13;;;13.73;;
46757;SDS011;32509;47.750;-3.396;2023-03-01T03:19:10;13.05;;;11.85;;
46757;SDS011;32509;47.750;-3.396;2023-03-01T03:21:36;13.82;;;12.10;;
46757;SDS011;32509;47.750;-3.396;2023-03-01T03:24:02;13.40;;;12.13;;
46757;SDS011;32509;47.750;-3.396;2023-03-01T03:26:32;14.85;;;13.48;;
46757;SDS011;32509;47.750;-3.396;2023-03-01T03:28:57;13.45;;;12.20;;
46757;SDS011;32509;47.750;-3.396;2023-03-01T03:31:23;13.95;;;12.63;;
46757;SDS011;32509;47.750;-3.396;2023-03-01T03:33:49;14.48;;;12.98;;
46757;SDS011;32509;47.750;-3.396;2023-03-01T03:36:20;13.95;;;12.55;;
46757;SDS011;32509;47.750;-3.396;2023-03-01T03:38:47;13.90;;;12.57;;
46757;SDS011;32509;47.750;-3.396;2023-03-01T03:41:14;14.68;;;13.27;;
46757;SDS011;32509;47.750;-3.396;2023-03-01T03:43:41;15.43;;;13.93;;
46757;SDS011;32509;47.750;-3.396;2023-03-01T03:46:08;15.20;;;13.60;;
46757;SDS011;32509;47.750;-3.396;2023-03-01T03:48:36;13.30;;;12.00;;
46757;SDS011;32509;47.750;-3.396;2023-03-01T03:51:09;14.88;;;13.43;;
46757;SDS011;32509;47.750;-3.396;2023-03-01T03:53:37;14.70;;;13.30;;
46757;SDS011;32509;47.750;-3.396;2023-03-01T03:56:03;14.88;;;13.32;;
46757;SDS011;32509;47.750;-3.396;2023-03-01T03:58:29;16.08;;;14.63;;
46757;SDS011;32509;47.750;-3.396;2023-03-01T04:00:56;14.95;;;13.45;;
46757;SDS011;32509;47.750;-3.396;2023-03-01T04:03:23;16.77;;;15.18;;
46757;SDS011;32509;47.750;-3.396;2023-03-01T04:05:50;15.10;;;13.63;;
46757;SDS011;32509;47.750;-3.396;2023-03-01T04:08:20;14.27;;;12.88;;
46757;SDS011;32509;47.750;-3.396;2023-03-01T04:10:49;16.02;;;14.45;;
46757;SDS011;32509;47.750;-3.396;2023-03-01T04:13:17;15.02;;;13.43;;
46757;SDS011;32509;47.750;-3.396;2023-03-01T04:15:52;15.35;;;13.85;;
46757;SDS011;32509;47.750;-3.396;2023-03-01T04:18:21;15.82;;;14.32;;
46757;SDS011;32509;47.750;-3.396;2023-03-01T04:20:48;16.38;;;14.75;;
46757;SDS011;32509;47.750;-3.396;2023-03-01T04:23:17;15.35;;;13.85;;
46757;SDS011;32509;47.750;-3.396;2023-03-01T04:25:52;15.07;;;13.57;;
46757;SDS011;32509;47.750;-3.396;2023-03-01T04:30:53;16.27;;;14.57;;
46757;SDS011;32509;47.750;-3.396;2023-03-01T04:33:23;15.40;;;13.82;;
46757;SDS011;32509;47.750;-3.396;2023-03-01T04:35:50;14.73;;;13.30;;
46757;SDS011;32509;47.750;-3.396;2023-03-01T04:38:19;15.57;;;14.00;;
46757;SDS011;32509;47.750;-3.396;2023-03-01T04:40:46;14.32;;;12.93;;
46757;SDS011;32509;47.750;-3.396;2023-03-01T04:43:12;15.82;;;14.35;;
46757;SDS011;32509;47.750;-3.396;2023-03-01T04:45:39;17.40;;;15.55;;
46757;SDS011;32509;47.750;-3.396;2023-03-01T04:48:05;16.67;;;14.95;;
46757;SDS011;32509;47.750;-3.396;2023-03-01T04:50:31;15.73;;;14.15;;
46757;SDS011;32509;47.750;-3.396;2023-03-01T04:52:58;15.98;;;14.48;;
46757;SDS011;32509;47.750;-3.396;2023-03-01T04:55:26;15.55;;;14.10;;
46757;SDS011;32509;47.750;-3.396;2023-03-01T04:57:53;18.40;;;16.42;;
46757;SDS011;32509;47.750;-3.396;2023-03-01T05:00:19;16.20;;;14.52;;
46757;SDS011;32509;47.750;-3.396;2023-03-01T05:02:47;17.08;;;15.38;;
46757;SDS011;32509;47.750;-3.396;2023-03-01T05:05:21;16.50;;;14.90;;
46757;SDS011;32509;47.750;-3.396;2023-03-01T05:08:13;14.65;;;13.05;;
46757;SDS011;32509;47.750;-3.396;2023-03-01T05:10:48;15.50;;;13.93;;
46757;SDS011;32509;47.750;-3.396;2023-03-01T05:13:15;16.30;;;14.75;;
46757;SDS011;32509;47.750;-3.396;2023-03-01T05:15:53;15.80;;;14.20;;
46757;SDS011;32509;47.750;-3.396;2023-03-01T05:18:21;16.58;;;14.60;;
46757;SDS011;32509;47.750;-3.396;2023-03-01T05:20:51;14.65;;;13.25;;
46757;SDS011;32509;47.750;-3.396;2023-03-01T05:23:17;14.70;;;13.35;;
46757;SDS011;32509;47.750;-3.396;2023-03-01T05:25:43;15.48;;;13.95;;
46757;SDS011;32509;47.750;-3.396;2023-03-01T05:28:12;16.02;;;14.50;;
46757;SDS011;32509;47.750;-3.396;2023-03-01T05:30:39;16.73;;;15.10;;
46757;SDS011;32509;47.750;-3.396;2023-03-01T05:33:05;15.95;;;14.27;;
46757;SDS011;32509;47.750;-3.396;2023-03-01T05:35:38;15.32;;;13.90;;
46757;SDS011;32509;47.750;-3.396;2023-03-01T05:38:05;15.35;;;13.82;;
46757;SDS011;32509;47.750;-3.396;2023-03-01T05:40:32;15.73;;;14.23;;
46757;SDS011;32509;47.750;-3.396;2023-03-01T05:42:59;14.68;;;13.18;;
46757;SDS011;32509;47.750;-3.396;2023-03-01T05:45:25;14.18;;;12.77;;
46757;SDS011;32509;47.750;-3.396;2023-03-01T05:47:52;15.27;;;13.65;;
46757;SDS011;32509;47.750;-3.396;2023-03-01T05:50:23;14.15;;;12.63;;
46757;SDS011;32509;47.750;-3.396;2023-03-01T05:52:51;14.82;;;13.43;;
46757;SDS011;32509;47.750;-3.396;2023-03-01T05:55:22;13.95;;;12.60;;
46757;SDS011;32509;47.750;-3.396;2023-03-01T05:57:59;14.50;;;13.10;;
46757;SDS011;32509;47.750;-3.396;2023-03-01T06:00:26;14.20;;;12.88;;
46757;SDS011;32509;47.750;-3.396;2023-03-01T06:03:00;13.80;;;12.40;;
46757;SDS011;32509;47.750;-3.396;2023-03-01T06:05:27;14.75;;;13.23;;
46757;SDS011;32509;47.750;-3.396;2023-03-01T06:07:53;13.38;;;11.98;;
46757;SDS011;32509;47.750;-3.396;2023-03-01T06:10:20;14.32;;;12.93;;
46757;SDS011;32509;47.750;-3.396;2023-03-01T06:12:47;17.85;;;15.52;;
46757;SDS011;32509;47.750;-3.396;2023-03-01T06:15:13;12.70;;;11.50;;
46757;SDS011;32509;47.750;-3.396;2023-03-01T06:17:41;13.57;;;12.27;;
46757;SDS011;32509;47.750;-3.396;2023-03-01T06:20:09;12.65;;;11.45;;
46757;SDS011;32509;47.750;-3.396;2023-03-01T06:22:37;13.20;;;12.00;;
46757;SDS011;32509;47.750;-3.396;2023-03-01T06:25:03;13.85;;;12.55;;
46757;SDS011;32509;47.750;-3.396;2023-03-01T06:27:30;14.02;;;12.52;;
46757;SDS011;32509;47.750;-3.396;2023-03-01T06:29:56;12.30;;;11.10;;
46757;SDS011;32509;47.750;-3.396;2023-03-01T06:32:22;12.93;;;11.73;;
46757;SDS011;32509;47.750;-3.396;2023-03-01T06:34:48;12.98;;;11.68;;
46757;SDS011;32509;47.750;-3.396;2023-03-01T06:37:14;12.73;;;11.50;;
46757;SDS011;32509;47.750;-3.396;2023-03-01T06:39:40;12.20;;;10.95;;
46757;SDS011;32509;47.750;-3.396;2023-03-01T06:42:07;11.60;;;10.52;;
46757;SDS011;32509;47.750;-3.396;2023-03-01T06:44:35;12.93;;;11.75;;
46757;SDS011;32509;47.750;-3.396;2023-03-01T06:47:01;13.25;;;12.00;;
46757;SDS011;32509;47.750;-3.396;2023-03-01T06:49:28;11.52;;;10.43;;
46757;SDS011;32509;47.750;-3.396;2023-03-01T06:51:54;11.50;;;10.30;;
46757;SDS011;32509;47.750;-3.396;2023-03-01T06:54:19;13.23;;;11.93;;
46757;SDS011;32509;47.750;-3.396;2023-03-01T06:56:49;12.27;;;11.05;;
46757;SDS011;32509;47.750;-3.396;2023-03-01T06:59:15;11.93;;;10.48;;
46757;SDS011;32509;47.750;-3.396;2023-03-01T07:01:42;12.10;;;10.98;;
46757;SDS011;32509;47.750;-3.396;2023-03-01T07:04:11;12.15;;;11.05;;
46757;SDS011;32509;47.750;-3.396;2023-03-01T07:06:38;12.13;;;11.02;;
46757;SDS011;32509;47.750;-3.396;2023-03-01T07:09:04;11.80;;;10.60;;
46757;SDS011;32509;47.750;-3.396;2023-03-01T07:11:30;15.90;;;10.93;;
46757;SDS011;32509;47.750;-3.396;2023-03-01T07:13:58;11.65;;;10.45;;
46757;SDS011;32509;47.750;-3.396;2023-03-01T07:16:25;12.85;;;11.63;;
46757;SDS011;32509;47.750;-3.396;2023-03-01T07:18:50;13.90;;;9.95;;
46757;SDS011;32509;47.750;-3.396;2023-03-01T07:21:21;11.70;;;10.50;;
46757;SDS011;32509;47.750;-3.396;2023-03-01T07:23:47;12.77;;;11.48;;
46757;SDS011;32509;47.750;-3.396;2023-03-01T07:26:16;11.02;;;9.93;;
46757;SDS011;32509;47.750;-3.396;2023-03-01T07:28:42;12.05;;;10.80;;
46757;SDS011;32509;47.750;-3.396;2023-03-01T07:31:08;11.60;;;10.50;;
46757;SDS011;32509;47.750;-3.396;2023-03-01T07:33:33;11.50;;;10.48;;
46757;SDS011;32509;47.750;-3.396;2023-03-01T07:36:00;10.35;;;9.07;;
46757;SDS011;32509;47.750;-3.396;2023-03-01T07:38:27;11.93;;;10.82;;
46757;SDS011;32509;47.750;-3.396;2023-03-01T07:40:57;10.10;;;9.10;;
46757;SDS011;32509;47.750;-3.396;2023-03-01T07:43:27;10.77;;;9.68;;
46757;SDS011;32509;47.750;-3.396;2023-03-01T07:45:54;10.93;;;9.93;;
46757;SDS011;32509;47.750;-3.396;2023-03-01T07:48:22;11.05;;;10.15;;
46757;SDS011;32509;47.750;-3.396;2023-03-01T07:50:48;9.85;;;8.88;;
46757;SDS011;32509;47.750;-3.396;2023-03-01T07:53:14;11.70;;;10.60;;
46757;SDS011;32509;47.750;-3.396;2023-03-01T07:55:39;10.07;;;9.18;;
46757;SDS011;32509;47.750;-3.396;2023-03-01T07:58:05;11.27;;;9.93;;
46757;SDS011;32509;47.750;-3.396;2023-03-01T08:00:31;10.30;;;9.38;;
46757;SDS011;32509;47.750;-3.396;2023-03-01T08:03:00;10.95;;;9.85;;
46757;SDS011;32509;47.750;-3.396;2023-03-01T08:05:27;10.57;;;9.55;;
46757;SDS011;32509;47.750;-3.396;2023-03-01T08:07:53;10.40;;;9.40;;
46757;SDS011;32509;47.750;-3.396;2023-03-01T08:10:19;10.57;;;9.32;;
46757;SDS011;32509;47.750;-3.396;2023-03-01T08:12:45;11.35;;;9.35;;
46757;SDS011;32509;47.750;-3.396;2023-03-01T08:15:11;9.85;;;8.95;;
46757;SDS011;32509;47.750;-3.396;2023-03-01T08:17:37;10.43;;;8.75;;
46757;SDS011;32509;47.750;-3.396;2023-03-01T08:20:03;10.15;;;9.13;;
46757;SDS011;32509;47.750;-3.396;2023-03-01T08:22:32;10.88;;;9.77;;
46757;SDS011;32509;47.750;-3.396;2023-03-01T08:24:58;10.50;;;8.95;;
46757;SDS011;32509;47.750;-3.396;2023-03-01T08:27:24;10.10;;;9.18;;
46757;SDS011;32509;47.750;-3.396;2023-03-01T08:29:49;10.05;;;8.77;;
46757;SDS011;32509;47.750;-3.396;2023-03-01T08:32:15;9.85;;;8.95;;
46757;SDS011;32509;47.750;-3.396;2023-03-01T08:34:41;8.95;;;8.05;;
46757;SDS011;32509;47.750;-3.396;2023-03-01T08:37:07;9.00;;;8.10;;
46757;SDS011;32509;47.750;-3.396;2023-03-01T08:39:32;9.32;;;8.43;;
46757;SDS011;32509;47.750;-3.396;2023-03-01T08:41:58;9.13;;;8.23;;
46757;SDS011;32509;47.750;-3.396;2023-03-01T08:44:24;9.05;;;7.65;;
46757;SDS011;32509;47.750;-3.396;2023-03-01T08:46:50;9.75;;;8.73;;
46757;SDS011;32509;47.750;-3.396;2023-03-01T08:49:18;10.23;;;8.65;;
46757;SDS011;32509;47.750;-3.396;2023-03-01T08:51:45;9.13;;;8.23;;
46757;SDS011;32509;47.750;-3.396;2023-03-01T08:54:13;9.45;;;8.48;;
46757;SDS011;32509;47.750;-3.396;2023-03-01T08:56:41;9.50;;;8.57;;
46757;SDS011;32509;47.750;-3.396;2023-03-01T08:59:07;8.82;;;7.90;;
46757;SDS011;32509;47.750;-3.396;2023-03-01T09:01:34;8.68;;;7.78;;
46757;SDS011;32509;47.750;-3.396;2023-03-01T09:04:02;7.45;;;6.78;;
46757;SDS011;32509;47.750;-3.396;2023-03-01T09:06:30;8.75;;;7.88;;
46757;SDS011;32509;47.750;-3.396;2023-03-01T09:08:57;9.57;;;8.27;;
46757;SDS011;32509;47.750;-3.396;2023-03-01T09:11:24;8.60;;;7.70;;
46757;SDS011;32509;47.750;-3.396;2023-03-01T09:13:50;8.75;;;7.80;;
46757;SDS011;32509;47.750;-3.396;2023-03-01T09:16:17;8.52;;;7.68;;
46757;SDS011;32509;47.750;-3.396;2023-03-01T09:18:44;9.43;;;6.97;;
46757;SDS011;32509;47.750;-3.396;2023-03-01T09:21:11;7.65;;;6.93;;
46757;SDS011;32509;47.750;-3.396;2023-03-01T09:23:40;7.43;;;6.72;;
46757;SDS011;32509;47.750;-3.396;2023-03-01T09:26:12;7.60;;;6.80;;
46757;SDS011;32509;47.750;-3.396;2023-03-01T09:28:44;7.85;;;7.07;;
46757;SDS011;32509;47.750;-3.396;2023-03-01T09:31:11;6.55;;;5.97;;
46757;SDS011;32509;47.750;-3.396;2023-03-01T09:33:39;7.78;;;6.10;;
46757;SDS011;32509;47.750;-3.396;2023-03-01T09:36:06;7.45;;;6.78;;
46757;SDS011;32509;47.750;-3.396;2023-03-01T09:38:38;7.55;;;6.85;;
46757;SDS011;32509;47.750;-3.396;2023-03-01T09:41:11;7.15;;;6.55;;
46757;SDS011;32509;47.750;-3.396;2023-03-01T09:44:42;6.68;;;5.95;;
46757;SDS011;32509;47.750;-3.396;2023-03-01T09:46:47;6.45;;;5.70;;
46757;SDS011;32509;47.750;-3.396;2023-03-01T09:49:17;7.65;;;6.07;;
46757;SDS011;32509;47.750;-3.396;2023-03-01T09:54:52;6.50;;;5.90;;
46757;SDS011;32509;47.750;-3.396;2023-03-01T09:57:25;7.07;;;6.47;;
46757;SDS011;32509;47.750;-3.396;2023-03-01T10:02:51;9.10;;;6.18;;
46757;SDS011;32509;47.750;-3.396;2023-03-01T10:08:02;6.50;;;5.90;;
46757;SDS011;32509;47.750;-3.396;2023-03-01T10:10:38;8.45;;;6.07;;
46757;SDS011;32509;47.750;-3.396;2023-03-01T10:15:50;6.68;;;6.07;;
46757;SDS011;32509;47.750;-3.396;2023-03-01T10:18:26;6.60;;;5.43;;
46757;SDS011;32509;47.750;-3.396;2023-03-01T10:21:07;6.55;;;5.95;;
46757;SDS011;32509;47.750;-3.396;2023-03-01T10:23:37;6.85;;;6.15;;
46757;SDS011;32509;47.750;-3.396;2023-03-01T10:29:06;7.65;;;6.95;;
46757;SDS011;32509;47.750;-3.396;2023-03-01T10:36:47;8.00;;;7.20;;
46757;SDS011;32509;47.750;-3.396;2023-03-01T10:39:16;8.82;;;7.88;;
46757;SDS011;32509;47.750;-3.396;2023-03-01T10:41:57;9.33;;;8.43;;
46757;SDS011;32509;47.750;-3.396;2023-03-01T10:44:38;10.52;;;8.18;;
46757;SDS011;32509;47.750;-3.396;2023-03-01T10:49:54;8.75;;;7.28;;
46757;SDS011;32509;47.750;-3.396;2023-03-01T10:52:30;8.32;;;7.35;;
46757;SDS011;32509;47.750;-3.396;2023-03-01T10:55:04;10.63;;;8.45;;
46757;SDS011;32509;47.750;-3.396;2023-03-01T10:58:33;11.15;;;9.00;;
46757;SDS011;32509;47.750;-3.396;2023-03-01T11:00:59;9.32;;;7.30;;
46757;SDS011;32509;47.750;-3.396;2023-03-01T11:03:31;11.52;;;9.60;;
46757;SDS011;32509;47.750;-3.396;2023-03-01T11:06:04;10.25;;;9.25;;
46757;SDS011;32509;47.750;-3.396;2023-03-01T11:13:39;14.00;;;10.60;;
46757;SDS011;32509;47.750;-3.396;2023-03-01T11:16:32;13.05;;;10.07;;
46757;SDS011;32509;47.750;-3.396;2023-03-01T11:19:04;12.98;;;10.15;;
46757;SDS011;32509;47.750;-3.396;2023-03-01T11:21:31;13.52;;;11.88;;
46757;SDS011;32509;47.750;-3.396;2023-03-01T11:24:00;12.88;;;9.95;;
46757;SDS011;32509;47.750;-3.396;2023-03-01T11:26:27;14.07;;;11.55;;
46757;SDS011;32509;47.750;-3.396;2023-03-01T13:13:18;16.80;;;14.98;;
46757;SDS011;32509;47.750;-3.396;2023-03-01T13:15:46;16.27;;;14.55;;
46757;SDS011;32509;47.750;-3.396;2023-03-01T13:25:33;17.95;;;15.85;;
46757;SDS011;32509;47.750;-3.396;2023-03-01T13:30:56;17.90;;;15.75;;
46757;SDS011;32509;47.750;-3.396;2023-03-01T13:35:48;15.95;;;13.95;;
46757;SDS011;32509;47.750;-3.396;2023-03-01T13:41:44;20.92;;;15.05;;
46757;SDS011;32509;47.750;-3.396;2023-03-01T13:44:12;15.77;;;13.80;;
46757;SDS011;32509;47.750;-3.396;2023-03-01T13:49:27;21.85;;;14.98;;
46757;SDS011;32509;47.750;-3.396;2023-03-01T13:51:58;16.33;;;14.63;;
46757;SDS011;32509;47.750;-3.396;2023-03-01T13:54:31;15.43;;;13.80;;
46757;SDS011;32509;47.750;-3.396;2023-03-01T13:56:58;14.98;;;13.43;;
46757;SDS011;32509;47.750;-3.396;2023-03-01T13:59:25;18.92;;;13.40;;
46757;SDS011;32509;47.750;-3.396;2023-03-01T14:01:52;15.27;;;13.75;;
46757;SDS011;32509;47.750;-3.396;2023-03-01T14:04:23;14.82;;;13.32;;
46757;SDS011;32509;47.750;-3.396;2023-03-01T14:09:45;14.15;;;12.75;;
46757;SDS011;32509;47.750;-3.396;2023-03-01T14:18:20;14.70;;;13.07;;
46757;SDS011;32509;47.750;-3.396;2023-03-01T14:20:51;13.85;;;12.27;;
46757;SDS011;32509;47.750;-3.396;2023-03-01T14:23:18;15.18;;;12.77;;
46757;SDS011;32509;47.750;-3.396;2023-03-01T14:25:49;17.15;;;13.20;;
46757;SDS011;32509;47.750;-3.396;2023-03-01T14:28:18;15.13;;;12.90;;
46757;SDS011;32509;47.750;-3.396;2023-03-01T14:30:48;15.52;;;13.70;;
46757;SDS011;32509;47.750;-3.396;2023-03-01T14:33:36;15.30;;;12.30;;
46757;SDS011;32509;47.750;-3.396;2023-03-01T14:36:06;19.40;;;13.65;;
46757;SDS011;32509;47.750;-3.396;2023-03-01T14:38:36;14.60;;;12.50;;
46757;SDS011;32509;47.750;-3.396;2023-03-01T14:41:08;14.50;;;12.90;;
46757;SDS011;32509;47.750;-3.396;2023-03-01T14:43:38;16.80;;;13.00;;
46757;SDS011;32509;47.750;-3.396;2023-03-01T14:46:16;14.75;;;13.23;;
46757;SDS011;32509;47.750;-3.396;2023-03-01T14:48:48;17.95;;;13.35;;
46757;SDS011;32509;47.750;-3.396;2023-03-01T14:51:16;16.10;;;14.02;;
46757;SDS011;32509;47.750;-3.396;2023-03-01T14:53:41;16.65;;;14.88;;
46757;SDS011;32509;47.750;-3.396;2023-03-01T14:56:12;16.85;;;14.52;;
46757;SDS011;32509;47.750;-3.396;2023-03-01T14:58:39;16.13;;;14.60;;
46757;SDS011;32509;47.750;-3.396;2023-03-01T15:01:05;16.23;;;14.52;;
46757;SDS011;32509;47.750;-3.396;2023-03-01T15:03:37;14.77;;;13.27;;
46757;SDS011;32509;47.750;-3.396;2023-03-01T15:06:14;17.60;;;14.93;;
46757;SDS011;32509;47.750;-3.396;2023-03-01T15:08:46;16.55;;;14.18;;
46757;SDS011;32509;47.750;-3.396;2023-03-01T15:11:22;18.38;;;14.02;;
46757;SDS011;32509;47.750;-3.396;2023-03-01T15:13:52;30.00;;;16.73;;
46757;SDS011;32509;47.750;-3.396;2023-03-01T15:16:20;18.63;;;14.57;;
46757;SDS011;32509;47.750;-3.396;2023-03-01T15:19:04;15.70;;;14.02;;
46757;SDS011;32509;47.750;-3.396;2023-03-01T15:21:35;16.02;;;14.38;;
46757;SDS011;32509;47.750;-3.396;2023-03-01T15:24:07;15.00;;;13.40;;
46757;SDS011;32509;47.750;-3.396;2023-03-01T15:27:01;22.85;;;15.27;;
46757;SDS011;32509;47.750;-3.396;2023-03-01T15:29:32;15.85;;;14.20;;
46757;SDS011;32509;47.750;-3.396;2023-03-01T15:32:22;16.20;;;14.63;;
46757;SDS011;32509;47.750;-3.396;2023-03-01T15:34:52;14.63;;;13.13;;
46757;SDS011;32509;47.750;-3.396;2023-03-01T15:39:59;15.32;;;13.73;;
46757;SDS011;32509;47.750;-3.396;2023-03-01T15:45:10;18.52;;;15.05;;
46757;SDS011;32509;47.750;-3.396;2023-03-01T15:47:58;16.23;;;14.43;;
46757;SDS011;32509;47.750;-3.396;2023-03-01T15:53:01;17.85;;;14.27;;
46757;SDS011;32509;47.750;-3.396;2023-03-01T15:55:36;16.60;;;14.85;;
46757;SDS011;32509;47.750;-3.396;2023-03-01T16:00:41;15.77;;;14.05;;
46757;SDS011;32509;47.750;-3.396;2023-03-01T16:03:08;17.20;;;13.77;;
46757;SDS011;32509;47.750;-3.396;2023-03-01T16:05:37;17.52;;;15.68;;
46757;SDS011;32509;47.750;-3.396;2023-03-01T16:08:04;16.13;;;14.43;;
46757;SDS011;32509;47.750;-3.396;2023-03-01T16:10:33;20.00;;;15.48;;
46757;SDS011;32509;47.750;-3.396;2023-03-01T16:13:00;16.17;;;12.85;;
46757;SDS011;32509;47.750;-3.396;2023-03-01T16:15:26;16.48;;;14.45;;
46757;SDS011;32509;47.750;-3.396;2023-03-01T16:17:54;27.38;;;16.35;;
46757;SDS011;32509;47.750;-3.396;2023-03-01T16:20:20;14.82;;;13.05;;
46757;SDS011;32509;47.750;-3.396;2023-03-01T16:22:47;15.80;;;14.13;;
46757;SDS011;32509;47.750;-3.396;2023-03-01T16:25:13;15.43;;;13.85;;
46757;SDS011;32509;47.750;-3.396;2023-03-01T16:27:45;18.45;;;14.38;;
46757;SDS011;32509;47.750;-3.396;2023-03-01T16:30:12;16.75;;;13.85;;
46757;SDS011;32509;47.750;-3.396;2023-03-01T16:32:43;17.15;;;15.20;;
46757;SDS011;32509;47.750;-3.396;2023-03-01T16:35:11;15.82;;;14.13;;
46757;SDS011;32509;47.750;-3.396;2023-03-01T16:37:38;15.68;;;14.02;;
46757;SDS011;32509;47.750;-3.396;2023-03-01T16:40:06;18.27;;;14.38;;
46757;SDS011;32509;47.750;-3.396;2023-03-01T16:42:40;16.27;;;14.73;;
46757;SDS011;32509;47.750;-3.396;2023-03-01T16:45:07;14.95;;;13.27;;
46757;SDS011;32509;47.750;-3.396;2023-03-01T16:47:36;16.73;;;15.13;;
46757;SDS011;32509;47.750;-3.396;2023-03-01T16:50:02;15.48;;;13.88;;
46757;SDS011;32509;47.750;-3.396;2023-03-01T16:52:27;15.10;;;13.50;;
46757;SDS011;32509;47.750;-3.396;2023-03-01T16:54:53;15.73;;;14.23;;
46757;SDS011;32509;47.750;-3.396;2023-03-01T16:57:19;17.10;;;14.30;;
46757;SDS011;32509;47.750;-3.396;2023-03-01T16:59:45;17.55;;;15.82;;
46757;SDS011;32509;47.750;-3.396;2023-03-01T17:02:12;20.92;;;14.60;;
46757;SDS011;32509;47.750;-3.396;2023-03-01T17:04:39;16.98;;;15.25;;
46757;SDS011;32509;47.750;-3.396;2023-03-01T17:07:06;17.90;;;13.98;;
46757;SDS011;32509;47.750;-3.396;2023-03-01T17:09:35;15.25;;;13.88;;
46757;SDS011;32509;47.750;-3.396;2023-03-01T17:12:02;16.13;;;14.10;;
46757;SDS011;32509;47.750;-3.396;2023-03-01T17:14:30;15.43;;;13.82;;
46757;SDS011;32509;47.750;-3.396;2023-03-01T17:16:56;17.40;;;12.77;;
46757;SDS011;32509;47.750;-3.396;2023-03-01T17:19:22;18.40;;;16.60;;
46757;SDS011;32509;47.750;-3.396;2023-03-01T17:21:48;15.57;;;14.05;;
46757;SDS011;32509;47.750;-3.396;2023-03-01T17:24:14;14.50;;;13.07;;
46757;SDS011;32509;47.750;-3.396;2023-03-01T17:26:40;15.73;;;14.18;;
46757;SDS011;32509;47.750;-3.396;2023-03-01T17:29:06;14.77;;;13.18;;
46757;SDS011;32509;47.750;-3.396;2023-03-01T17:31:32;14.77;;;13.20;;
46757;SDS011;32509;47.750;-3.396;2023-03-01T17:33:59;14.05;;;12.60;;